< < Back
Terminal Aerodrome Forecast


Current Version              Previous Versions:   1  2  3  4  5  6  7  8  9  

Terminal Aerodrome Forecast

831
FTUS42 KJAX 282320 AAA
TAFGNV
TAF AMD
KGNV 282320Z 2823/2918 10008KT P6SM SCT040 SCT250
     FM290200 09003KT P6SM SCT250
     FM291600 09009KT P6SM SCT040 SCT250=

Latest METAR

207
SAUS70 KWBC 291100 RRA
MTRGNV
METAR KGNV 291053Z 00000KT 5SM BR CLR 18/17 A3011 RMK AO2 SLP194
T01780172 $


USA.gov is the U.S. government's official web portal to all federal, state and local government web resources and services.